Forside
METAR-TAF:

METAR-TAF

Lufthavne :

Damaskus, Syrien

Breddekreds: 33-25N, længdekreds: 036-31E, højde: 608 m

Aktuelle vejr

Denne rapport blev lavet for 1 time og 9 minutter siden, kl. 17:00 UTC
Vind 16 kt fra sydvest
Temperatur 28°C
Fugtighed 45%
Tryk 1007 hPa
Sigt 10 km eller mere
ingen skyer under 1500m og ingen cumulonimbus

METAR: OSDI 141700Z 22016KT CAVOK 28/15 Q1007

Tid: 21:09 (18:09 UTC)

Vejrudsigter

Denne rapport blev lavet for 2 timer og 9 minutter siden, kl. 16:00 UTC
Foreløbig gælder fra 14 på 18 UTC til 15 på 24 UTC
Vind 15 kt fra sydvest
Sigt 10 km eller mere
Nogle få skyer i en højde af 3000 ft
Midlertidig
fra 15 på 12 UTC til 15 på 18 UTC
Vind 15 kt fra vestsydvest med vindstød på up til 25 kt

TAF: OSDI 141600Z 1418/1524 22015KT 9999 FEW030 TEMPO 1512/1518 25015G25KT

Vejrobservationer og prognoser fra mere end 4000 lufthavne (METAR og TAF).

De gule og røde prikker repræsenterer de meteorologiske stationer.

Flyt musen over at se navnet på stationen.

Så klik over at se vejr observationer og prognoser.

At skifte det kort: Klik på de grønne knapper med et sort kors for at zoome ind; på den grønne knap med en bindestreg for at zoome ud; eller på de grønne pile for tilstødende kort.


METAR-TAF: